Terminal Aerodrome Forecast
Issued by NWS

Home | Current Version | Previous Version | Text Only | Print | Product List | Glossary On
Versions: 1 2 3 4 5 6 7 8 9 10 11 12 13 14 15
000
FTUS43 KAPX 161700
TAFAPN
TAF
KAPN 161720Z 1618/1718 25010KT P6SM SCT040
      TEMPO 1618/1620 BKN040
     FM170000 23003KT P6SM SKC
     FM170600 23004KT P6SM BKN090
     FM171500 27010G18KT P6SM BKN110=

USA.gov is the U.S. government's official web portal to all federal, state and local government web resources and services.